createdAt,value
2023-02-07T00:00:54.855Z,55.11
2023-02-07T00:01:54.859Z,56.24
2023-02-07T00:02:54.844Z,56.72
2023-02-07T00:03:54.812Z,56.24
2023-02-07T00:04:54.804Z,56.07
2023-02-07T00:05:54.871Z,56.24
2023-02-07T00:06:54.833Z,55.75
2023-02-07T00:07:54.778Z,56.07
2023-02-07T00:08:54.799Z,56.40
2023-02-07T00:09:54.794Z,57.04
2023-02-07T00:10:54.741Z,65.42
2023-02-07T00:11:54.794Z,66.71
2023-02-07T00:12:54.761Z,56.88
2023-02-07T00:13:54.740Z,56.07
2023-02-07T00:14:54.742Z,55.27
2023-02-07T00:15:54.771Z,56.07
2023-02-07T00:16:54.720Z,55.43
2023-02-07T00:17:54.735Z,56.24
2023-02-07T00:18:54.721Z,59.46
2023-02-07T00:19:54.700Z,57.36
2023-02-07T00:20:54.687Z,56.07
2023-02-07T00:21:54.674Z,55.27
2023-02-07T00:22:54.675Z,55.75
2023-02-07T00:23:54.695Z,62.36
2023-02-07T00:24:54.651Z,56.24
2023-02-07T00:25:54.637Z,57.69
2023-02-07T00:26:54.636Z,55.75
2023-02-07T00:27:54.780Z,55.59
2023-02-07T00:28:54.659Z,56.88
2023-02-07T00:29:54.683Z,56.88
2023-02-07T00:30:54.744Z,56.40
2023-02-07T00:31:54.628Z,56.72
2023-02-07T00:32:54.610Z,56.88
2023-02-07T00:33:54.568Z,56.24
2023-02-07T00:34:54.677Z,56.07
2023-02-07T00:35:54.682Z,56.07
2023-02-07T00:36:54.565Z,56.24
2023-02-07T00:37:54.557Z,56.24
2023-02-07T00:38:54.559Z,55.43
2023-02-07T00:39:54.583Z,55.59
2023-02-07T00:40:54.538Z,55.91
2023-02-07T00:41:54.630Z,55.91
2023-02-07T00:42:54.534Z,55.75
2023-02-07T00:43:54.543Z,55.11
2023-02-07T00:44:54.514Z,55.43
2023-02-07T00:45:54.521Z,55.59
2023-02-07T00:46:54.481Z,55.43
2023-02-07T00:47:54.607Z,55.11
2023-02-07T00:48:54.495Z,55.11
2023-02-07T00:49:54.457Z,55.75
2023-02-07T00:50:54.461Z,56.07
2023-02-07T00:51:54.460Z,56.07
2023-02-07T00:52:54.452Z,55.27
2023-02-07T00:53:54.744Z,54.30
2023-02-07T00:54:54.439Z,54.79
2023-02-07T00:55:54.467Z,55.27
2023-02-07T00:56:54.423Z,55.91
2023-02-07T00:57:54.436Z,56.24
2023-02-07T00:58:54.408Z,55.91
2023-02-07T00:59:54.462Z,56.88
2023-02-07T01:00:54.417Z,55.91
2023-02-07T01:01:54.391Z,56.88
2023-02-07T01:02:54.391Z,56.72
2023-02-07T01:03:54.383Z,59.14
2023-02-07T01:04:54.392Z,58.49
2023-02-07T01:05:54.440Z,56.07
2023-02-07T01:06:54.386Z,55.91
2023-02-07T01:07:54.340Z,56.24
2023-02-07T01:08:54.339Z,67.03
2023-02-07T01:09:54.344Z,57.85
2023-02-07T01:10:54.336Z,56.56
2023-02-07T01:11:54.377Z,56.72
2023-02-07T01:12:54.293Z,64.94
2023-02-07T01:13:54.289Z,57.69
2023-02-07T01:14:54.304Z,57.36
2023-02-07T01:15:54.361Z,76.05
2023-02-07T01:16:54.267Z,56.88
2023-02-07T01:17:54.342Z,56.56
2023-02-07T01:18:54.301Z,56.40
2023-02-07T01:19:54.262Z,56.72
2023-02-07T01:20:54.263Z,76.54
2023-02-07T01:21:54.256Z,62.84
2023-02-07T01:22:54.237Z,57.04
2023-02-07T01:23:54.283Z,56.88
2023-02-07T01:24:54.222Z,57.04
2023-02-07T01:25:54.225Z,57.52
2023-02-07T01:26:54.220Z,56.40
2023-02-07T01:27:54.234Z,55.91
2023-02-07T01:28:54.198Z,56.72
2023-02-07T01:29:54.321Z,56.88
2023-02-07T01:30:54.271Z,56.24
2023-02-07T01:31:54.194Z,56.07
2023-02-07T01:32:54.174Z,56.07
2023-02-07T01:33:54.172Z,56.56
2023-02-07T01:34:54.165Z,56.24
2023-02-07T01:35:54.199Z,56.24
2023-02-07T01:36:54.164Z,56.40
2023-02-07T01:37:54.144Z,55.91
2023-02-07T01:38:54.152Z,55.75
2023-02-07T01:39:54.131Z,56.40
2023-02-07T01:40:54.126Z,56.40
2023-02-07T01:41:54.157Z,55.43
2023-02-07T01:42:54.097Z,55.11
2023-02-07T01:43:54.098Z,56.40
2023-02-07T01:44:54.066Z,62.04
2023-02-07T01:45:54.102Z,56.72
2023-02-07T01:46:54.071Z,55.59
2023-02-07T01:47:54.108Z,55.91
2023-02-07T01:48:54.042Z,56.56
2023-02-07T01:49:54.087Z,56.24
2023-02-07T01:50:54.036Z,54.95
2023-02-07T01:51:56.297Z,55.75
2023-02-07T01:52:54.033Z,55.91
2023-02-07T01:53:54.098Z,56.24
2023-02-07T01:54:54.015Z,56.07
2023-02-07T01:55:54.020Z,54.46
2023-02-07T01:56:54.018Z,56.24
2023-02-07T01:57:53.963Z,56.40
2023-02-07T01:58:53.995Z,56.40
2023-02-07T01:59:54.104Z,57.04
2023-02-07T02:00:53.979Z,56.56
2023-02-07T02:01:53.969Z,56.72
2023-02-07T02:02:53.990Z,56.56
2023-02-07T02:03:53.949Z,56.72
2023-02-07T02:04:53.967Z,56.88
2023-02-07T02:05:53.974Z,62.84
2023-02-07T02:06:53.916Z,56.72
2023-02-07T02:07:53.901Z,55.27
2023-02-07T02:08:53.919Z,55.43
2023-02-07T02:09:53.924Z,55.75
2023-02-07T02:10:53.926Z,55.59
2023-02-07T02:11:53.949Z,62.36
2023-02-07T02:12:53.895Z,55.59
2023-02-07T02:13:53.892Z,55.59
2023-02-07T02:14:53.855Z,56.40
2023-02-07T02:15:53.909Z,55.59
2023-02-07T02:16:53.882Z,55.59
2023-02-07T02:17:53.917Z,54.79
2023-02-07T02:18:53.859Z,55.43
2023-02-07T02:19:53.842Z,56.40
2023-02-07T02:20:53.862Z,56.40
2023-02-07T02:21:53.819Z,56.07
2023-02-07T02:22:53.829Z,55.43
2023-02-07T02:23:53.896Z,56.07
2023-02-07T02:24:53.832Z,55.59
2023-02-07T02:25:53.830Z,56.07
2023-02-07T02:26:53.796Z,56.56
2023-02-07T02:27:53.780Z,56.56
2023-02-07T02:28:53.800Z,56.56
2023-02-07T02:29:53.840Z,56.72
2023-02-07T02:30:53.817Z,56.24
2023-02-07T02:31:53.761Z,57.20
2023-02-07T02:32:53.761Z,55.59
2023-02-07T02:33:53.750Z,55.59
2023-02-07T02:34:53.730Z,56.07
2023-02-07T02:35:53.753Z,56.07
2023-02-07T02:36:53.746Z,54.95
2023-02-07T02:37:53.715Z,56.40
2023-02-07T02:38:53.689Z,56.24
2023-02-07T02:39:53.687Z,55.91
2023-02-07T02:40:53.697Z,55.91
2023-02-07T02:41:53.746Z,57.20
2023-02-07T02:42:53.678Z,55.91
2023-02-07T02:43:53.663Z,55.27
2023-02-07T02:44:53.670Z,55.11
2023-02-07T02:45:53.637Z,55.59
2023-02-07T02:46:53.643Z,55.43
2023-02-07T02:47:53.726Z,56.07
2023-02-07T02:48:53.633Z,57.20
2023-02-07T02:49:53.620Z,57.20
2023-02-07T02:50:53.627Z,56.56
2023-02-07T02:51:53.616Z,55.91
2023-02-07T02:52:53.616Z,55.91
2023-02-07T02:53:53.664Z,55.91
2023-02-07T02:54:53.598Z,53.98
2023-02-07T02:55:53.577Z,54.14
2023-02-07T02:56:53.590Z,55.11
2023-02-07T02:57:53.662Z,55.75
2023-02-07T02:58:53.567Z,57.36
2023-02-07T02:59:53.840Z,57.69
2023-02-07T03:00:53.533Z,58.01
2023-02-07T03:01:53.592Z,55.91
2023-02-07T03:02:53.541Z,56.07
2023-02-07T03:03:53.539Z,61.39
2023-02-07T03:04:53.552Z,63.16
2023-02-07T03:05:53.566Z,55.91
2023-02-07T03:06:53.528Z,55.59
2023-02-07T03:07:53.505Z,55.59
2023-02-07T03:08:53.493Z,70.09
2023-02-07T03:09:53.505Z,55.91
2023-02-07T03:10:53.487Z,56.07
2023-02-07T03:11:53.550Z,55.27
2023-02-07T03:12:53.477Z,55.91
2023-02-07T03:13:53.475Z,55.27
2023-02-07T03:14:53.446Z,58.97
2023-02-07T03:15:53.524Z,65.10
2023-02-07T03:16:53.441Z,56.72
2023-02-07T03:17:53.484Z,56.72
2023-02-07T03:18:53.440Z,56.88
2023-02-07T03:19:53.430Z,56.72
2023-02-07T03:20:53.410Z,55.91
2023-02-07T03:21:53.404Z,56.40
2023-02-07T03:22:53.414Z,56.40
2023-02-07T03:23:53.453Z,56.07
2023-02-07T03:24:53.388Z,57.04
2023-02-07T03:25:53.372Z,57.04
2023-02-07T03:26:53.367Z,56.40
2023-02-07T03:27:53.413Z,54.79
2023-02-07T03:28:53.355Z,54.14
2023-02-07T03:29:53.383Z,55.91
2023-02-07T03:30:53.412Z,55.75
2023-02-07T03:31:53.346Z,58.17
2023-02-07T03:32:53.316Z,59.14
2023-02-07T03:33:53.329Z,68.00
2023-02-07T03:34:53.324Z,57.04
2023-02-07T03:35:53.372Z,56.72
2023-02-07T03:36:53.298Z,57.52
2023-02-07T03:37:53.323Z,57.04
2023-02-07T03:38:53.299Z,60.91
2023-02-07T03:39:53.275Z,59.30
2023-02-07T03:40:53.291Z,58.17
2023-02-07T03:41:53.327Z,58.33
2023-02-07T03:42:53.263Z,57.52
2023-02-07T03:43:53.248Z,62.52
2023-02-07T03:44:53.247Z,61.23
2023-02-07T03:45:53.245Z,57.04
2023-02-07T03:46:53.253Z,56.88
2023-02-07T03:47:53.291Z,58.81
2023-02-07T03:48:53.204Z,63.33
2023-02-07T03:49:53.226Z,56.88
2023-02-07T03:50:53.202Z,68.00
2023-02-07T03:51:53.190Z,57.36
2023-02-07T03:52:53.190Z,56.56
2023-02-07T03:53:53.287Z,55.91
2023-02-07T03:54:53.209Z,55.59
2023-02-07T03:55:53.197Z,63.33
2023-02-07T03:56:53.160Z,55.43
2023-02-07T03:57:53.157Z,57.85
2023-02-07T03:58:53.139Z,57.85
2023-02-07T03:59:53.196Z,59.46
2023-02-07T04:00:53.152Z,56.72
2023-02-07T04:01:53.142Z,57.20
2023-02-07T04:02:53.097Z,56.88
2023-02-07T04:03:53.140Z,57.36
2023-02-07T04:04:53.115Z,57.20
2023-02-07T04:05:53.616Z,57.20
2023-02-07T04:06:53.092Z,57.85
2023-02-07T04:07:53.089Z,57.52
2023-02-07T04:08:53.081Z,57.85
2023-02-07T04:09:53.053Z,57.36
2023-02-07T04:10:53.066Z,56.88
2023-02-07T04:11:53.112Z,57.20
2023-02-07T04:12:53.071Z,64.78
2023-02-07T04:13:53.024Z,57.20
2023-02-07T04:14:53.020Z,57.36
2023-02-07T04:15:53.077Z,57.69
2023-02-07T04:16:53.025Z,57.85
2023-02-07T04:17:53.057Z,56.56
2023-02-07T04:18:53.016Z,55.91
2023-02-07T04:19:53.009Z,62.68
2023-02-07T04:20:52.998Z,57.69
2023-02-07T04:21:52.972Z,56.88
2023-02-07T04:22:52.971Z,57.36
2023-02-07T04:23:53.043Z,57.20
2023-02-07T04:24:52.994Z,58.01
2023-02-07T04:25:52.958Z,57.36
2023-02-07T04:26:52.936Z,59.62
2023-02-07T04:27:52.993Z,63.81
2023-02-07T04:28:52.946Z,63.97
2023-02-07T04:29:52.983Z,61.55
2023-02-07T04:30:52.995Z,69.77
2023-02-07T04:31:52.989Z,57.69
2023-02-07T04:32:52.913Z,57.85
2023-02-07T04:33:52.903Z,66.39
2023-02-07T04:34:52.934Z,57.52
2023-02-07T04:35:52.936Z,57.52
2023-02-07T04:36:52.872Z,57.85
2023-02-07T04:37:52.909Z,57.20
2023-02-07T04:38:52.853Z,65.90
2023-02-07T04:39:52.854Z,58.33
2023-02-07T04:40:52.880Z,64.78
2023-02-07T04:41:52.880Z,64.94
2023-02-07T04:42:52.846Z,56.88
2023-02-07T04:43:52.823Z,56.88
2023-02-07T04:44:52.817Z,58.49
2023-02-07T04:45:52.817Z,58.33
2023-02-07T04:46:52.813Z,61.07
2023-02-07T04:47:52.845Z,64.29
2023-02-07T04:48:52.839Z,66.23
2023-02-07T04:49:52.766Z,59.46
2023-02-07T04:50:52.765Z,67.03
2023-02-07T04:51:52.798Z,58.97
2023-02-07T04:52:52.779Z,58.81
2023-02-07T04:53:52.832Z,68.96
2023-02-07T04:54:52.788Z,59.46
2023-02-07T04:55:52.733Z,58.65
2023-02-07T04:56:52.770Z,67.84
2023-02-07T04:57:52.724Z,67.84
2023-02-07T04:58:52.721Z,58.01
2023-02-07T04:59:52.765Z,65.42
2023-02-07T05:00:52.746Z,60.75
2023-02-07T05:01:52.706Z,63.65
2023-02-07T05:02:52.705Z,64.45
2023-02-07T05:03:52.678Z,63.16
2023-02-07T05:04:52.698Z,59.62
2023-02-07T05:05:52.728Z,58.81
2023-02-07T05:06:52.722Z,67.35
2023-02-07T05:07:52.658Z,67.19
2023-02-07T05:08:52.672Z,60.91
2023-02-07T05:09:52.693Z,63.33
2023-02-07T05:10:52.647Z,68.16
2023-02-07T05:11:53.190Z,62.20
2023-02-07T05:12:52.620Z,70.42
2023-02-07T05:13:52.624Z,66.06
2023-02-07T05:14:52.623Z,59.78
2023-02-07T05:15:52.618Z,65.42
2023-02-07T05:16:52.651Z,59.14
2023-02-07T05:18:26.330Z,60.10
2023-02-07T05:18:52.596Z,58.65
2023-02-07T05:19:52.595Z,59.62
2023-02-07T05:20:52.585Z,62.36
2023-02-07T05:21:52.590Z,65.42
2023-02-07T05:22:52.590Z,59.30
2023-02-07T05:23:52.640Z,61.39
2023-02-07T05:24:52.560Z,67.03
2023-02-07T05:25:52.570Z,61.23
2023-02-07T05:26:52.572Z,64.45
2023-02-07T05:27:52.609Z,63.65
2023-02-07T05:28:52.543Z,58.97
2023-02-07T05:29:52.574Z,65.90
2023-02-07T05:30:52.608Z,59.94
2023-02-07T05:31:52.650Z,82.34
2023-02-07T05:32:52.494Z,61.07
2023-02-07T05:33:52.503Z,63.49
2023-02-07T05:34:52.501Z,76.86
2023-02-07T05:35:52.550Z,66.39
2023-02-07T05:36:52.486Z,65.90
2023-02-07T05:37:52.473Z,63.97
2023-02-07T05:38:52.480Z,60.42
2023-02-07T05:39:52.459Z,67.51
2023-02-07T05:40:52.441Z,63.16
2023-02-07T05:41:52.475Z,66.71
2023-02-07T05:42:52.431Z,64.78
2023-02-07T05:43:52.433Z,67.68
2023-02-07T05:44:52.421Z,59.62
2023-02-07T05:45:52.454Z,63.81
2023-02-07T05:46:52.727Z,63.33
2023-02-07T05:47:52.462Z,65.26
2023-02-07T05:48:52.411Z,58.49
2023-02-07T05:49:52.389Z,58.97
2023-02-07T05:50:52.372Z,64.29
2023-02-07T05:51:52.362Z,64.13
2023-02-07T05:52:52.350Z,64.45
2023-02-07T05:53:52.404Z,66.87
2023-02-07T05:54:52.363Z,66.71
2023-02-07T05:55:52.358Z,60.10
2023-02-07T05:56:52.329Z,68.32
2023-02-07T05:57:52.352Z,70.25
2023-02-07T05:58:52.331Z,72.83
2023-02-07T05:59:52.396Z,72.35
2023-02-07T06:00:52.322Z,70.74
2023-02-07T06:01:52.309Z,67.03
2023-02-07T06:02:52.353Z,67.35
2023-02-07T06:03:52.320Z,63.49
2023-02-07T06:04:52.287Z,66.06
2023-02-07T06:05:52.355Z,64.29
2023-02-07T06:06:52.267Z,65.90
2023-02-07T06:07:52.281Z,64.29
2023-02-07T06:08:52.244Z,70.90
2023-02-07T06:09:52.296Z,71.87
2023-02-07T06:10:52.232Z,71.70
2023-02-07T06:11:52.502Z,64.78
2023-02-07T06:12:52.233Z,65.74
2023-02-07T06:13:52.238Z,64.13
2023-02-07T06:14:52.223Z,66.55
2023-02-07T06:15:52.224Z,65.26
2023-02-07T06:16:52.185Z,70.42
2023-02-07T06:17:52.256Z,65.58
2023-02-07T06:18:52.183Z,67.03
2023-02-07T06:19:53.633Z,68.96
2023-02-07T06:20:52.153Z,63.97
2023-02-07T06:21:52.163Z,59.46
2023-02-07T06:22:52.163Z,64.94
2023-02-07T06:23:52.217Z,64.78
2023-02-07T06:24:52.193Z,70.90
2023-02-07T06:25:52.158Z,68.32
2023-02-07T06:26:52.110Z,69.93
2023-02-07T06:27:52.206Z,65.90
2023-02-07T06:28:52.125Z,68.48
2023-02-07T06:29:52.155Z,70.25
2023-02-07T06:30:52.238Z,72.99
2023-02-07T06:31:52.171Z,66.71
2023-02-07T06:32:52.118Z,65.10
2023-02-07T06:33:52.072Z,67.84
2023-02-07T06:34:52.070Z,65.90
2023-02-07T06:35:52.133Z,62.68
2023-02-07T06:36:52.075Z,63.49
2023-02-07T06:37:54.763Z,66.55
2023-02-07T06:38:52.084Z,68.32
2023-02-07T06:39:52.074Z,63.65
2023-02-07T06:40:52.040Z,70.58
2023-02-07T06:41:52.433Z,64.29
2023-02-07T06:42:52.045Z,69.45
2023-02-07T06:43:52.044Z,65.74
2023-02-07T06:44:52.066Z,66.39
2023-02-07T06:45:52.022Z,65.90
2023-02-07T06:46:51.998Z,66.87
2023-02-07T06:47:52.060Z,69.93
2023-02-07T06:48:51.990Z,65.26
2023-02-07T06:49:51.972Z,66.06
2023-02-07T06:50:51.998Z,69.61
2023-02-07T06:51:51.976Z,70.42
2023-02-07T06:52:51.972Z,70.42
2023-02-07T06:53:51.989Z,72.67
2023-02-07T06:54:51.970Z,66.71
2023-02-07T06:55:51.957Z,64.45
2023-02-07T06:56:51.913Z,66.23
2023-02-07T06:57:51.961Z,65.74
2023-02-07T06:58:51.921Z,68.96
2023-02-07T06:59:51.949Z,73.15
2023-02-07T07:00:51.924Z,64.78
2023-02-07T07:01:51.966Z,65.42
2023-02-07T07:02:51.922Z,65.42
2023-02-07T07:03:51.934Z,66.55
2023-02-07T07:04:51.909Z,70.09
2023-02-07T07:05:51.924Z,64.78
2023-02-07T07:06:51.875Z,67.84
2023-02-07T07:07:51.869Z,79.12
2023-02-07T07:08:51.915Z,71.54
2023-02-07T07:09:51.846Z,64.78
2023-02-07T07:10:51.868Z,65.26
2023-02-07T07:11:51.893Z,66.87
2023-02-07T07:12:51.844Z,65.90
2023-02-07T07:13:51.820Z,64.94
2023-02-07T07:14:51.832Z,71.70
2023-02-07T07:15:51.838Z,65.26
2023-02-07T07:16:51.811Z,70.25
2023-02-07T07:17:52.153Z,65.58
2023-02-07T07:18:51.807Z,69.93
2023-02-07T07:19:51.789Z,71.38
2023-02-07T07:20:51.785Z,66.06
2023-02-07T07:21:51.800Z,68.80
2023-02-07T07:22:51.770Z,62.52
2023-02-07T07:23:51.819Z,68.48
2023-02-07T07:24:51.743Z,70.09
2023-02-07T07:25:51.745Z,69.29
2023-02-07T07:26:51.734Z,63.33
2023-02-07T07:27:51.731Z,66.71
2023-02-07T07:28:51.725Z,69.93
2023-02-07T07:29:51.778Z,62.68
2023-02-07T07:30:51.690Z,68.00
2023-02-07T07:31:51.751Z,69.29
2023-02-07T07:32:51.681Z,70.74
2023-02-07T07:33:51.702Z,70.25
2023-02-07T07:34:51.683Z,63.81
2023-02-07T07:35:51.726Z,65.42
2023-02-07T07:36:51.676Z,70.58
2023-02-07T07:37:51.672Z,69.13
2023-02-07T07:38:52.391Z,69.29
2023-02-07T07:39:51.657Z,68.96
2023-02-07T07:40:51.642Z,72.51
2023-02-07T07:41:51.733Z,65.10
2023-02-07T07:42:51.639Z,66.87
2023-02-07T07:43:51.618Z,68.64
2023-02-07T07:44:51.605Z,69.13
2023-02-07T07:45:51.598Z,65.26
2023-02-07T07:46:51.670Z,63.81
2023-02-07T07:47:51.712Z,62.04
2023-02-07T07:48:51.573Z,70.25
2023-02-07T07:49:51.971Z,65.74
2023-02-07T07:50:51.576Z,68.64
2023-02-07T07:51:51.576Z,65.42
2023-02-07T07:52:51.542Z,65.74
2023-02-07T07:53:51.585Z,64.13
2023-02-07T07:54:51.529Z,67.19
2023-02-07T07:55:51.533Z,71.70
2023-02-07T07:56:51.537Z,65.10
2023-02-07T07:57:51.509Z,72.83
2023-02-07T07:58:51.502Z,66.39
2023-02-07T07:59:51.556Z,67.51
2023-02-07T08:00:51.526Z,75.57
2023-02-07T08:01:51.478Z,64.78
2023-02-07T08:02:51.476Z,65.74
2023-02-07T08:03:51.490Z,70.90
2023-02-07T08:04:51.470Z,67.51
2023-02-07T08:05:51.512Z,73.15
2023-02-07T08:06:51.464Z,66.39
2023-02-07T08:07:51.481Z,67.51
2023-02-07T08:08:51.431Z,68.80
2023-02-07T08:09:51.427Z,68.80
2023-02-07T08:10:51.431Z,69.61
2023-02-07T08:11:51.487Z,64.13
2023-02-07T08:12:51.388Z,65.90
2023-02-07T08:13:51.412Z,65.42
2023-02-07T08:14:51.386Z,68.32
2023-02-07T08:15:51.408Z,67.35
2023-02-07T08:16:51.386Z,67.51
2023-02-07T08:17:51.655Z,70.42
2023-02-07T08:18:51.366Z,73.32
2023-02-07T08:19:51.356Z,68.96
2023-02-07T08:20:51.376Z,66.87
2023-02-07T08:21:51.326Z,67.19
2023-02-07T08:22:51.395Z,62.68
2023-02-07T08:23:51.707Z,65.42
2023-02-07T08:24:51.318Z,63.97
2023-02-07T08:25:51.305Z,67.19
2023-02-07T08:26:51.320Z,70.90
2023-02-07T08:27:51.320Z,64.61
2023-02-07T08:28:51.273Z,69.13
2023-02-07T08:29:51.338Z,65.42
2023-02-07T08:30:51.310Z,72.03
2023-02-07T08:31:51.349Z,62.36
2023-02-07T08:32:51.260Z,65.42
2023-02-07T08:33:51.266Z,65.74
2023-02-07T08:34:51.243Z,64.94
2023-02-07T08:35:51.315Z,65.58
2023-02-07T08:36:51.240Z,65.90
2023-02-07T08:37:51.231Z,66.39
2023-02-07T08:38:51.259Z,70.58
2023-02-07T08:39:51.207Z,63.97
2023-02-07T08:40:51.206Z,61.87
2023-02-07T08:41:51.266Z,62.84
2023-02-07T08:42:51.199Z,65.90
2023-02-07T08:43:51.209Z,65.90
2023-02-07T08:44:51.174Z,65.10
2023-02-07T08:45:51.268Z,67.19
2023-02-07T08:46:51.161Z,63.65
2023-02-07T08:47:51.242Z,64.78
2023-02-07T08:48:51.138Z,67.51
2023-02-07T08:49:51.166Z,71.87
2023-02-07T08:50:51.141Z,65.74
2023-02-07T08:51:51.121Z,65.90
2023-02-07T08:52:51.116Z,69.13
2023-02-07T08:53:51.156Z,77.99
2023-02-07T08:54:51.101Z,73.15
2023-02-07T08:55:51.100Z,64.45
2023-02-07T08:56:51.085Z,67.19
2023-02-07T08:57:51.116Z,63.81
2023-02-07T08:58:51.077Z,64.78
2023-02-07T08:59:51.119Z,65.74
2023-02-07T09:00:51.104Z,65.42
2023-02-07T09:01:51.063Z,73.15
2023-02-07T09:02:51.070Z,65.42
2023-02-07T09:03:51.065Z,66.23
2023-02-07T09:04:51.034Z,64.94
2023-02-07T09:05:51.070Z,63.65
2023-02-07T09:06:51.032Z,63.81
2023-02-07T09:07:51.018Z,65.10
2023-02-07T09:08:51.045Z,61.87
2023-02-07T09:09:50.976Z,72.67
2023-02-07T09:10:51.041Z,65.58
2023-02-07T09:11:51.037Z,62.36
2023-02-07T09:12:50.952Z,64.78
2023-02-07T09:13:50.949Z,65.42
2023-02-07T09:14:50.951Z,67.35
2023-02-07T09:15:50.943Z,69.77
2023-02-07T09:16:50.982Z,72.35
2023-02-07T09:17:51.013Z,70.09
2023-02-07T09:18:51.214Z,70.42
2023-02-07T09:19:50.922Z,70.90
2023-02-07T09:20:50.905Z,64.78
2023-02-07T09:21:50.901Z,63.81
2023-02-07T09:22:50.894Z,68.80
2023-02-07T09:23:51.171Z,70.90
2023-02-07T09:24:50.890Z,69.61
2023-02-07T09:25:50.880Z,64.78
2023-02-07T09:26:50.848Z,62.68
2023-02-07T09:27:50.900Z,62.84
2023-02-07T09:28:50.863Z,63.16
2023-02-07T09:29:50.907Z,62.84
2023-02-07T09:30:51.310Z,67.84
2023-02-07T09:31:50.945Z,64.94
2023-02-07T09:32:50.806Z,65.74
2023-02-07T09:33:50.807Z,63.81
2023-02-07T09:34:50.809Z,61.87
2023-02-07T09:35:50.888Z,59.94
2023-02-07T09:36:50.782Z,66.55
2023-02-07T09:37:50.830Z,67.51
2023-02-07T09:38:50.768Z,61.55
2023-02-07T09:39:50.792Z,64.13
2023-02-07T09:40:50.768Z,64.45
2023-02-07T09:41:50.793Z,62.20
2023-02-07T09:42:50.792Z,64.29
2023-02-07T09:43:50.857Z,66.87
2023-02-07T09:44:50.899Z,68.48
2023-02-07T09:45:50.782Z,67.84
2023-02-07T09:46:50.738Z,74.12
2023-02-07T09:47:50.811Z,67.19
2023-02-07T09:48:50.711Z,64.94
2023-02-07T09:49:50.718Z,66.06
2023-02-07T09:50:50.722Z,67.03
2023-02-07T09:51:50.689Z,67.03
2023-02-07T09:52:50.675Z,68.96
2023-02-07T09:53:50.721Z,65.26
2023-02-07T09:54:50.674Z,68.96
2023-02-07T09:55:50.691Z,63.81
2023-02-07T09:56:50.660Z,64.61
2023-02-07T09:57:50.659Z,64.29
2023-02-07T09:58:50.665Z,71.22
2023-02-07T09:59:50.710Z,63.49
2023-02-07T10:00:50.623Z,64.61
2023-02-07T10:01:50.628Z,68.64
2023-02-07T10:02:50.656Z,69.45
2023-02-07T10:03:50.599Z,65.58
2023-02-07T10:04:50.590Z,59.46
2023-02-07T10:05:50.643Z,63.33
2023-02-07T10:06:50.612Z,62.04
2023-02-07T10:07:50.577Z,61.39
2023-02-07T10:08:50.550Z,59.78
2023-02-07T10:09:50.546Z,65.26
2023-02-07T10:10:50.551Z,64.61
2023-02-07T10:11:50.718Z,67.03
2023-02-07T10:12:50.590Z,65.42
2023-02-07T10:13:50.556Z,64.78
2023-02-07T10:14:50.528Z,67.03
2023-02-07T10:15:50.578Z,63.33
2023-02-07T10:16:50.511Z,62.36
2023-02-07T10:17:50.588Z,64.94
2023-02-07T10:18:50.511Z,63.00
2023-02-07T10:19:50.494Z,65.10
2023-02-07T10:20:50.523Z,59.78
2023-02-07T10:21:50.446Z,62.68
2023-02-07T10:22:50.504Z,64.13
2023-02-07T10:23:50.752Z,64.78
2023-02-07T10:24:50.495Z,64.94
2023-02-07T10:25:50.479Z,79.12
2023-02-07T10:26:50.510Z,65.90
2023-02-07T10:27:50.509Z,64.45
2023-02-07T10:28:50.441Z,64.78
2023-02-07T10:29:50.511Z,61.87
2023-02-07T10:30:50.561Z,58.65
2023-02-07T10:31:50.498Z,65.90
2023-02-07T10:32:50.389Z,61.55
2023-02-07T10:33:50.399Z,63.16
2023-02-07T10:34:51.566Z,64.29
2023-02-07T10:35:50.428Z,61.39
2023-02-07T10:36:50.398Z,62.04
2023-02-07T10:37:50.362Z,61.39
2023-02-07T10:38:56.855Z,62.52
2023-02-07T10:39:51.371Z,62.84
2023-02-07T10:40:50.367Z,62.20
2023-02-07T10:41:50.383Z,61.71
2023-02-07T10:42:50.366Z,63.65
2023-02-07T10:43:50.373Z,66.23
2023-02-07T10:44:50.344Z,63.65
2023-02-07T10:45:57.002Z,64.13
2023-02-07T10:46:51.360Z,63.16
2023-02-07T10:47:50.287Z,63.16
2023-02-07T10:48:50.304Z,66.23
2023-02-07T10:49:50.285Z,66.87
2023-02-07T10:50:50.291Z,61.55
2023-02-07T10:51:50.252Z,60.10
2023-02-07T10:52:50.333Z,62.68
2023-02-07T10:53:55.099Z,59.94
2023-02-07T10:54:51.248Z,62.20
2023-02-07T10:55:50.238Z,61.71
2023-02-07T10:56:50.245Z,65.10
2023-02-07T10:57:54.297Z,66.06
2023-02-07T10:58:51.261Z,60.75
2023-02-07T10:59:50.210Z,67.35
2023-02-07T11:00:50.248Z,63.16
2023-02-07T11:01:50.226Z,69.77
2023-02-07T11:02:50.230Z,63.33
2023-02-07T11:03:50.206Z,65.90
2023-02-07T11:04:50.261Z,64.94
2023-02-07T11:05:50.186Z,60.75
2023-02-07T11:06:50.163Z,63.81
2023-02-07T11:07:50.162Z,62.68
2023-02-07T11:08:50.122Z,64.29
2023-02-07T11:09:50.130Z,63.49
2023-02-07T11:10:50.194Z,62.20
2023-02-07T11:11:50.115Z,68.32
2023-02-07T11:12:50.163Z,61.87
2023-02-07T11:13:50.120Z,59.46
2023-02-07T11:14:53.219Z,65.42
2023-02-07T11:15:50.206Z,63.81
2023-02-07T11:16:50.152Z,63.49
2023-02-07T11:17:50.194Z,66.23
2023-02-07T11:18:50.109Z,67.03
2023-02-07T11:19:50.100Z,65.90
2023-02-07T11:20:50.063Z,62.52
2023-02-07T11:21:50.122Z,63.16
2023-02-07T11:22:50.124Z,60.91
2023-02-07T11:23:50.117Z,61.07
2023-02-07T11:24:50.042Z,64.29
2023-02-07T11:25:50.039Z,64.13
2023-02-07T11:26:50.010Z,61.39
2023-02-07T11:27:50.031Z,62.04
2023-02-07T11:28:50.438Z,64.29
2023-02-07T11:29:49.997Z,65.90
2023-02-07T11:30:50.032Z,64.61
2023-02-07T11:31:50.105Z,65.90
2023-02-07T11:32:50.009Z,68.96
2023-02-07T11:33:49.993Z,68.48
2023-02-07T11:34:50.023Z,63.33
2023-02-07T11:35:49.963Z,62.20
2023-02-07T11:36:49.952Z,65.58
2023-02-07T11:37:49.945Z,62.84
2023-02-07T11:38:49.935Z,61.23
2023-02-07T11:39:49.960Z,60.91
2023-02-07T11:40:50.005Z,61.23
2023-02-07T11:41:49.909Z,62.36
2023-02-07T11:42:49.933Z,67.35
2023-02-07T11:43:49.905Z,62.20
2023-02-07T11:44:49.882Z,65.10
2023-02-07T11:45:49.875Z,67.03
2023-02-07T11:46:50.000Z,61.23
2023-02-07T11:47:49.904Z,60.91
2023-02-07T11:48:49.848Z,64.61
2023-02-07T11:49:49.866Z,69.45
2023-02-07T11:50:49.863Z,70.74
2023-02-07T11:51:49.839Z,64.61
2023-02-07T11:52:49.894Z,60.26
2023-02-07T11:53:49.921Z,61.55
2023-02-07T11:54:49.796Z,58.97
2023-02-07T11:55:51.027Z,59.14
2023-02-07T11:56:49.789Z,62.68
2023-02-07T11:57:49.772Z,69.93
2023-02-07T11:58:49.833Z,58.49
2023-02-07T11:59:49.770Z,61.71
2023-02-07T12:00:49.826Z,71.38
2023-02-07T12:01:51.408Z,62.68
2023-02-07T12:02:49.799Z,63.49
2023-02-07T12:03:49.754Z,64.29
2023-02-07T12:04:49.892Z,64.78
2023-02-07T12:05:49.799Z,63.16
2023-02-07T12:06:49.741Z,64.78
2023-02-07T12:07:49.723Z,63.00
2023-02-07T12:08:49.738Z,64.13
2023-02-07T12:09:49.688Z,71.22
2023-02-07T12:10:49.758Z,64.29
2023-02-07T12:11:49.701Z,63.00
2023-02-07T12:12:49.697Z,60.75
2023-02-07T12:13:49.692Z,64.45
2023-02-07T12:14:49.686Z,61.71
2023-02-07T12:15:49.669Z,65.10
2023-02-07T12:16:49.774Z,61.07
2023-02-07T12:17:49.715Z,63.81
2023-02-07T12:18:49.728Z,66.23
2023-02-07T12:19:49.651Z,61.71
2023-02-07T12:20:49.689Z,69.45
2023-02-07T12:21:49.670Z,69.77
2023-02-07T12:22:59.297Z,64.29
2023-02-07T12:23:51.712Z,66.55
2023-02-07T12:24:49.674Z,61.87
2023-02-07T12:25:49.712Z,61.07
2023-02-07T12:26:50.708Z,64.45
2023-02-07T12:27:49.608Z,61.39
2023-02-07T12:28:49.773Z,62.84
2023-02-07T12:29:49.650Z,69.45
2023-02-07T12:30:49.689Z,62.84
2023-02-07T12:31:49.812Z,67.51
2023-02-07T12:32:49.617Z,61.07
2023-02-07T12:33:49.614Z,60.59
2023-02-07T12:34:49.933Z,60.42
2023-02-07T12:35:56.957Z,60.91
2023-02-07T12:36:50.587Z,64.61
2023-02-07T12:37:49.617Z,62.84
2023-02-07T12:38:49.576Z,65.10
2023-02-07T12:39:49.544Z,62.68
2023-02-07T12:40:49.573Z,61.71
2023-02-07T12:41:49.467Z,60.91
2023-02-07T12:42:49.548Z,63.65
2023-02-07T12:43:49.570Z,62.52
2023-02-07T12:44:49.521Z,61.39
2023-02-07T12:45:49.513Z,58.49
2023-02-07T12:46:49.551Z,59.62
2023-02-07T12:47:49.440Z,59.46
2023-02-07T12:48:49.467Z,62.52
2023-02-07T12:49:49.451Z,61.23
2023-02-07T12:50:49.452Z,59.14
2023-02-07T12:51:49.453Z,62.20
2023-02-07T12:52:49.472Z,61.71